Agia Marina, Greece

6:43 PM EEST on June 26, 2017 (GMT +0300)
Odysseas Elytis | | Change Station

Elev 16 ft 39.07 °N, 26.60 °E | Updated 23 minutes ago

Clear
Clear
93 °F
Feels Like 93 °F
N
2
Wind Variable Wind from Variable

Today
High -- | Low -- °F
--% Chance of Precip.
Yesterday
High -- | Low -- °F
Precip. -- in
Pressure 29.77 in
Visibility -9999.0 miles
Clouds
Heat Index 93 °F
Dew Point 61 °F
Humidity 34%
Rainfall 0.00 in
Snow Depth Not available.
5:49 AM 8:43 PM
Waxing Crescent, 9% visible
METAR LGMT 261520Z VRB02KT CAVOK 34/16 Q1008
Pressure 29.77 in
Visibility -9999.0 miles
Clouds
Heat Index 93 °F
Dew Point 61 °F
Humidity 34%
Rainfall 0.00 in
Snow Depth Not available.
5:49 AM 8:43 PM
Waxing Crescent, 9% visible
METAR LGMT 261520Z VRB02KT CAVOK 34/16 Q1008

Get Severe Weather Alerts

Thanks for signing up!

Be on the lookout for a verification email in your inbox.

You'll start receiving the daily forecast at 6 AM.

×

10-Day Weather Forecast

×

Almanac

Astronomy

Jun. 26, 2017 Rise Set
Actual Time
Civil Twilight
Nautical Twilight
Astronomical Twilight
Moon
Length of Visible Light
Length of Day
Tomorrow will be .
, % of the Moon is Illuminated

Today's Extremes

Country Highs Country Lows

Community

WunderPhotos

Category 6

Welcome to Category 6. This is the collective home for Weather Underground's featured writeups by Dr. Jeff Masters (right), Bob Henson (left), Chris Burt, and other regular contributors.

Nearby

Air Quality

  Air Quality AQ Index Pollutant
Not available.

Snow Depth

Station Depth Elevation

Earthquake Activity

City Distance Mag. Time & Date
Minimum magnitude displayed is 2.5.

Coastal Water Temperatures

Place Temperature

Stations

Nearby Weather Stations

Station Location Temp. Windchill Dew Point Humidity Wind Precip. Elev Updated Type